createdAt,value
2023-06-22T00:02:37.767Z,0.17
2023-06-22T00:05:37.663Z,0.17
2023-06-22T00:08:37.694Z,0.21
2023-06-22T00:11:37.671Z,0.31
2023-06-22T00:14:37.689Z,0.14
2023-06-22T00:17:37.672Z,0.22
2023-06-22T00:20:37.729Z,0
2023-06-22T00:23:37.678Z,0
2023-06-22T00:26:37.708Z,0.13
2023-06-22T00:29:37.708Z,0.03
2023-06-22T00:32:37.738Z,0.11
2023-06-22T00:35:37.741Z,0.05
2023-06-22T00:38:37.719Z,0.16
2023-06-22T00:41:37.711Z,0.24
2023-06-22T00:44:37.769Z,0.26
2023-06-22T00:47:37.768Z,0.37
2023-06-22T00:50:37.746Z,0.16
2023-06-22T00:53:37.772Z,0.18
2023-06-22T00:56:37.742Z,0.43
2023-06-22T00:59:37.770Z,0.48
2023-06-22T01:02:37.799Z,0.44
2023-06-22T01:05:37.791Z,0.41
2023-06-22T01:08:37.714Z,0.73
2023-06-22T01:11:37.726Z,0.46
2023-06-22T01:14:37.790Z,0.54
2023-06-22T01:17:37.770Z,0.64
2023-06-22T01:20:37.810Z,0.61
2023-06-22T01:23:37.754Z,0.61
2023-06-22T01:26:37.739Z,0.59
2023-06-22T01:29:37.788Z,0.72
2023-06-22T01:32:37.799Z,0.5
2023-06-22T01:35:37.803Z,0.43
2023-06-22T01:38:37.806Z,0.27
2023-06-22T01:41:37.780Z,0.47
2023-06-22T01:44:37.798Z,0.49
2023-06-22T01:47:38.089Z,0.32
2023-06-22T01:50:37.763Z,0.48
2023-06-22T01:53:37.767Z,0.42
2023-06-22T01:56:37.738Z,0.35
2023-06-22T01:59:37.821Z,0.37
2023-06-22T02:02:37.801Z,0.39
2023-06-22T02:05:37.800Z,0.21
2023-06-22T02:08:37.786Z,0.05
2023-06-22T02:11:37.785Z,0.02
2023-06-22T02:14:37.724Z,0.02
2023-06-22T02:17:37.834Z,0.08
2023-06-22T02:20:37.781Z,0.08
2023-06-22T02:23:37.768Z,0.36
2023-06-22T02:26:37.765Z,0.33
2023-06-22T02:29:37.805Z,0.18
2023-06-22T02:32:37.792Z,0.15
2023-06-22T02:35:37.777Z,0.09
2023-06-22T02:38:37.858Z,0.11
2023-06-22T02:41:37.801Z,0.03
2023-06-22T02:44:37.814Z,0.01
2023-06-22T02:47:37.832Z,0
2023-06-22T02:50:37.835Z,0.15
2023-06-22T02:53:37.793Z,0.32
2023-06-22T02:56:37.805Z,0.21
2023-06-22T02:59:37.831Z,0.13
2023-06-22T03:02:37.813Z,0.23
2023-06-22T03:05:37.794Z,0.21
2023-06-22T03:08:37.770Z,0.17
2023-06-22T03:11:37.821Z,0.27
2023-06-22T03:14:37.861Z,0.29
2023-06-22T03:17:37.825Z,0.26
2023-06-22T03:20:37.849Z,0.21
2023-06-22T03:23:37.840Z,0.25
2023-06-22T03:26:37.860Z,0.39
2023-06-22T03:29:37.884Z,0.53
2023-06-22T03:32:37.892Z,0.64
2023-06-22T03:35:37.808Z,0.5
2023-06-22T03:38:37.896Z,0.47
2023-06-22T03:41:37.853Z,0.56
2023-06-22T03:44:37.905Z,0.57
2023-06-22T03:47:37.892Z,0.5
2023-06-22T03:50:38.100Z,0.29
2023-06-22T03:53:37.920Z,0.19
2023-06-22T03:56:37.865Z,0.58
2023-06-22T03:59:37.917Z,0.43
2023-06-22T04:02:37.955Z,0.57
2023-06-22T04:05:37.895Z,0.57
2023-06-22T04:08:37.881Z,0.59
2023-06-22T04:11:37.888Z,0.42
2023-06-22T04:14:37.874Z,0.78
2023-06-22T04:17:37.925Z,0.43
2023-06-22T04:20:37.918Z,0.43
2023-06-22T04:23:37.941Z,0.46
2023-06-22T04:26:37.898Z,0.41
2023-06-22T04:29:37.930Z,0.21
2023-06-22T04:32:37.944Z,0.41
2023-06-22T04:35:37.941Z,0.58
2023-06-22T04:38:37.915Z,0.4
2023-06-22T04:41:37.937Z,0.25
2023-06-22T04:44:37.893Z,0.6
2023-06-22T04:47:37.891Z,0.63
2023-06-22T04:50:37.897Z,0.82
2023-06-22T04:53:37.917Z,0.49
2023-06-22T04:56:37.962Z,0.78
2023-06-22T04:59:37.934Z,0.9
2023-06-22T05:02:38.057Z,0.84
2023-06-22T05:05:38.043Z,0.96
2023-06-22T05:08:37.926Z,0.67
2023-06-22T05:11:37.965Z,0.64
2023-06-22T05:14:37.980Z,0.73
2023-06-22T05:17:37.997Z,0.78
2023-06-22T05:20:37.967Z,0.64
2023-06-22T05:23:37.910Z,0.86
2023-06-22T05:26:37.945Z,0.79
2023-06-22T05:29:37.971Z,0.79
2023-06-22T05:32:38.124Z,0.79
2023-06-22T05:35:38.005Z,0.76
2023-06-22T05:38:37.971Z,0.81
2023-06-22T05:41:37.938Z,0.66
2023-06-22T05:44:40.654Z,0.98
2023-06-22T05:47:38.014Z,0.92
2023-06-22T05:50:37.992Z,0.91
2023-06-22T05:53:38.033Z,0.98
2023-06-22T05:56:38.028Z,0.76
2023-06-22T05:59:37.977Z,0.91
2023-06-22T06:02:38.028Z,0.9
2023-06-22T06:05:38.018Z,1.21
2023-06-22T06:08:37.966Z,0.88
2023-06-22T06:11:38.011Z,0.95
2023-06-22T06:14:37.986Z,0.71
2023-06-22T06:17:38.061Z,0.76
2023-06-22T06:20:37.977Z,0.69
2023-06-22T06:23:37.994Z,0.8
2023-06-22T06:26:37.999Z,1.16
2023-06-22T06:29:38.051Z,0.87
2023-06-22T06:32:38.087Z,1
2023-06-22T06:35:38.020Z,1.07
2023-06-22T06:38:37.993Z,1.1
2023-06-22T06:41:37.990Z,0.77
2023-06-22T06:44:38.037Z,0.8
2023-06-22T06:47:38.066Z,0.89
2023-06-22T06:50:38.003Z,0.84
2023-06-22T06:53:38.057Z,0.83
2023-06-22T06:56:38.050Z,1.18
2023-06-22T06:59:38.083Z,0.93
2023-06-22T07:02:38.078Z,0.68
2023-06-22T07:05:38.080Z,0.84
2023-06-22T07:08:38.097Z,0.86
2023-06-22T07:11:38.024Z,1.03
2023-06-22T07:14:38.090Z,1
2023-06-22T07:17:38.070Z,0.91
2023-06-22T07:20:38.037Z,0.92
2023-06-22T07:23:38.044Z,0.92
2023-06-22T07:26:38.060Z,0.93
2023-06-22T07:29:38.093Z,0.87
2023-06-22T07:32:38.129Z,0.9
2023-06-22T07:35:38.040Z,1.03
2023-06-22T07:38:38.126Z,0.81
2023-06-22T07:41:38.072Z,0.73
2023-06-22T07:44:38.113Z,0.94
2023-06-22T07:47:38.109Z,0.76
2023-06-22T07:50:38.090Z,1.01
2023-06-22T07:53:38.065Z,0.66
2023-06-22T07:56:38.167Z,1.22
2023-06-22T07:59:38.110Z,1.04
2023-06-22T08:02:38.115Z,1.09
2023-06-22T08:05:38.302Z,0.92
2023-06-22T08:08:38.097Z,1.14
2023-06-22T08:11:38.078Z,0.78
2023-06-22T08:14:38.115Z,1.11
2023-06-22T08:17:38.133Z,1.11
2023-06-22T08:20:38.169Z,1.11
2023-06-22T08:23:38.124Z,1.08
2023-06-22T08:26:38.187Z,1.06
2023-06-22T08:29:38.121Z,1.04
2023-06-22T08:32:38.106Z,1.68
2023-06-22T08:35:38.105Z,1.32
2023-06-22T08:38:38.198Z,1.42
2023-06-22T08:41:38.138Z,1.54
2023-06-22T08:44:38.148Z,1.46
2023-06-22T08:47:38.207Z,1.49
2023-06-22T08:50:38.126Z,1.31
2023-06-22T08:53:38.119Z,1.42
2023-06-22T08:56:38.159Z,1.6
2023-06-22T08:59:38.176Z,1.58
2023-06-22T09:02:38.246Z,1.22
2023-06-22T09:05:38.176Z,1.08
2023-06-22T09:08:38.219Z,1.11
2023-06-22T09:11:38.173Z,1.16
2023-06-22T09:14:38.161Z,1.29
2023-06-22T09:17:38.145Z,1.31
2023-06-22T09:20:38.173Z,0.87
2023-06-22T09:23:38.193Z,1.35
2023-06-22T09:26:38.180Z,1.14
2023-06-22T09:29:38.219Z,1.04
2023-06-22T09:32:38.235Z,0.82
2023-06-22T09:35:38.228Z,0.81
2023-06-22T09:38:38.185Z,1.04
2023-06-22T09:41:38.193Z,0.99
2023-06-22T09:44:38.248Z,0.68
2023-06-22T09:47:38.250Z,0.55
2023-06-22T09:50:38.196Z,0.66
2023-06-22T09:53:38.177Z,0.83
2023-06-22T09:56:38.205Z,0.65
2023-06-22T09:59:38.353Z,0.43
2023-06-22T10:02:38.311Z,1
2023-06-22T10:05:38.290Z,0.96
2023-06-22T10:08:38.223Z,1.11
2023-06-22T10:11:38.321Z,0.55
2023-06-22T10:14:38.278Z,0.74
2023-06-22T10:17:38.292Z,0.66
2023-06-22T10:20:38.257Z,0.52
2023-06-22T10:23:38.277Z,0.7
2023-06-22T10:26:38.329Z,0.72
2023-06-22T10:29:38.221Z,0.62
2023-06-22T10:32:38.284Z,0.51
2023-06-22T10:35:38.277Z,0.73
2023-06-22T10:38:40.493Z,0.86
2023-06-22T10:41:38.254Z,0.61
2023-06-22T10:44:38.201Z,0.64
2023-06-22T10:47:38.288Z,0.71
2023-06-22T10:50:38.241Z,0.51
2023-06-22T10:53:38.296Z,0.76
2023-06-22T10:56:38.275Z,0.91
2023-06-22T10:59:38.331Z,0.99
2023-06-22T11:02:38.311Z,0.62
2023-06-22T11:05:38.318Z,1.14
2023-06-22T11:08:38.297Z,1.04
2023-06-22T11:11:38.289Z,1.11
2023-06-22T11:14:38.329Z,0.62
2023-06-22T11:17:38.293Z,0.44
2023-06-22T11:20:38.286Z,0.57
2023-06-22T11:23:38.311Z,0.82
2023-06-22T11:26:38.273Z,0.67
2023-06-22T11:29:38.676Z,0.45
2023-06-22T11:32:38.376Z,0.59
2023-06-22T11:35:38.332Z,0.47
2023-06-22T11:38:38.337Z,0.68
2023-06-22T11:41:38.273Z,0.55
2023-06-22T11:44:38.285Z,0.19
2023-06-22T11:47:38.377Z,0.55
2023-06-22T11:50:38.330Z,0.79
2023-06-22T11:53:38.321Z,0.59
2023-06-22T11:56:38.309Z,0.84
2023-06-22T11:59:38.337Z,0.66
2023-06-22T12:02:38.382Z,0.73
2023-06-22T12:05:38.359Z,0.47
2023-06-22T12:08:39.241Z,0.78
2023-06-22T12:11:38.360Z,0.54
2023-06-22T12:14:38.342Z,0.36
2023-06-22T12:17:38.338Z,0.42
2023-06-22T12:20:38.327Z,0.43
2023-06-22T12:23:38.351Z,0.47
2023-06-22T12:26:38.310Z,0.52
2023-06-22T12:29:38.364Z,0.3
2023-06-22T12:32:38.427Z,0.91
2023-06-22T12:35:38.366Z,0.7
2023-06-22T12:38:38.362Z,0.7
2023-06-22T12:41:38.409Z,0.62
2023-06-22T12:44:38.387Z,0.16
2023-06-22T12:47:38.378Z,0.23
2023-06-22T12:50:38.403Z,0.36
2023-06-22T12:53:38.385Z,0.36
2023-06-22T12:56:38.403Z,0.46
2023-06-22T12:59:38.375Z,0.51
2023-06-22T13:02:38.480Z,0.24
2023-06-22T13:05:38.363Z,0.32
2023-06-22T13:09:14.802Z,0.18
2023-06-22T13:11:38.358Z,0.24
2023-06-22T13:14:38.439Z,0.36
2023-06-22T13:17:38.403Z,0.58
2023-06-22T13:20:38.364Z,0.4
2023-06-22T13:23:38.386Z,0.42
2023-06-22T13:26:38.392Z,0.25
2023-06-22T13:29:38.404Z,0.26
2023-06-22T13:32:38.433Z,0.51
2023-06-22T13:35:38.395Z,0.36
2023-06-22T13:38:38.377Z,0.19
2023-06-22T13:41:38.418Z,0.31
2023-06-22T13:44:38.377Z,0.19
2023-06-22T13:47:38.494Z,0.62
2023-06-22T13:50:38.442Z,0.59
2023-06-22T13:53:38.406Z,0.26
2023-06-22T13:56:38.473Z,0.64
2023-06-22T13:59:38.492Z,0.43
2023-06-22T14:02:38.491Z,0.35
2023-06-22T14:05:38.456Z,0.3
2023-06-22T14:08:41.967Z,0.17
2023-06-22T14:11:38.464Z,0.03
2023-06-22T14:14:38.423Z,0.18
2023-06-22T14:17:38.513Z,0.31
2023-06-22T14:20:38.504Z,0.13
2023-06-22T14:23:38.521Z,0.21
2023-06-22T14:26:38.458Z,0.11
2023-06-22T14:29:38.449Z,0.13
2023-06-22T14:32:38.494Z,0.28
2023-06-22T14:35:38.470Z,0.16
2023-06-22T14:38:38.439Z,0.3
2023-06-22T14:41:38.474Z,0.17
2023-06-22T14:44:38.507Z,0.25
2023-06-22T14:47:38.455Z,0.19
2023-06-22T14:50:38.523Z,0.16
2023-06-22T14:53:38.487Z,0.27
2023-06-22T14:56:38.525Z,0.29
2023-06-22T14:59:38.445Z,0.53
2023-06-22T15:02:38.521Z,0.28
2023-06-22T15:05:38.500Z,0.44
2023-06-22T15:08:38.479Z,0.43
2023-06-22T15:11:38.544Z,0.32
2023-06-22T15:14:38.505Z,0.44
2023-06-22T15:17:38.538Z,0.62
2023-06-22T15:20:38.496Z,0.7
2023-06-22T15:23:38.561Z,0.71
2023-06-22T15:26:38.555Z,0.75
2023-06-22T15:29:38.579Z,0.73
2023-06-22T15:32:38.550Z,1.05
2023-06-22T15:35:38.590Z,1
2023-06-22T15:38:38.556Z,0.51
2023-06-22T15:41:38.518Z,0.46
2023-06-22T15:44:38.582Z,0.4
2023-06-22T15:47:38.517Z,0.47
2023-06-22T15:50:38.538Z,0.5
2023-06-22T15:53:38.554Z,0.51
2023-06-22T15:56:38.541Z,0.44
2023-06-22T15:59:38.513Z,0.41
2023-06-22T16:02:38.626Z,0.32
2023-06-22T16:05:38.535Z,0.21
2023-06-22T16:08:38.559Z,0.38
2023-06-22T16:11:38.549Z,0.45
2023-06-22T16:14:38.585Z,0.45
2023-06-22T16:17:38.687Z,0.27
2023-06-22T16:20:38.598Z,0.21
2023-06-22T16:23:38.579Z,0.24
2023-06-22T16:26:38.639Z,0.3
2023-06-22T16:29:38.609Z,0.18
2023-06-22T16:32:38.622Z,0.26
2023-06-22T16:35:38.640Z,0.18
2023-06-22T16:38:38.589Z,0.21
2023-06-22T16:41:38.630Z,0.18
2023-06-22T16:44:38.535Z,0.23
2023-06-22T16:47:38.639Z,0.21
2023-06-22T16:50:38.616Z,0.32
2023-06-22T16:53:38.631Z,0.3
2023-06-22T16:56:38.644Z,0.37
2023-06-22T16:59:38.592Z,0.15
2023-06-22T17:02:38.664Z,0.25
2023-06-22T17:05:38.623Z,0.35
2023-06-22T17:08:38.634Z,0.44
2023-06-22T17:11:38.643Z,0.7
2023-06-22T17:14:38.639Z,0.59
2023-06-22T17:17:38.673Z,0.44
2023-06-22T17:20:38.649Z,0.52
2023-06-22T17:23:38.642Z,0.62
2023-06-22T17:26:38.610Z,0.56
2023-06-22T17:29:38.656Z,0.57
2023-06-22T17:32:38.649Z,0.46
2023-06-22T17:35:38.663Z,0.47
2023-06-22T17:38:38.653Z,0.58
2023-06-22T17:41:38.679Z,0.53
2023-06-22T17:44:38.625Z,0.59
2023-06-22T17:47:38.649Z,0.58
2023-06-22T17:50:38.702Z,0.59
2023-06-22T17:53:38.627Z,0.56
2023-06-22T17:56:38.689Z,0.42
2023-06-22T17:59:38.822Z,0.56
2023-06-22T18:02:38.664Z,0.69
2023-06-22T18:05:38.704Z,0.53
2023-06-22T18:08:38.645Z,0.42
2023-06-22T18:11:38.665Z,0.64
2023-06-22T18:14:38.702Z,0.74
2023-06-22T18:17:38.671Z,0.77
2023-06-22T18:20:38.717Z,0.74
2023-06-22T18:23:38.697Z,0.5
2023-06-22T18:26:38.711Z,0.57
2023-06-22T18:29:38.674Z,0.62
2023-06-22T18:32:38.718Z,0.6
2023-06-22T18:35:38.687Z,0.4
2023-06-22T18:38:41.154Z,0.59
2023-06-22T18:41:38.686Z,0.85
2023-06-22T18:44:38.700Z,1.09
2023-06-22T18:47:38.768Z,1.06
2023-06-22T18:50:38.684Z,0.77
2023-06-22T18:53:38.716Z,0.89
2023-06-22T18:56:38.701Z,0.81
2023-06-22T18:59:38.730Z,0.5
2023-06-22T19:02:38.787Z,0.43
2023-06-22T19:05:38.736Z,0.66
2023-06-22T19:08:38.711Z,0.83
2023-06-22T19:11:38.684Z,0.75
2023-06-22T19:14:38.726Z,1.01
2023-06-22T19:17:38.773Z,0.64
2023-06-22T19:20:38.697Z,0.55
2023-06-22T19:23:38.784Z,0.45
2023-06-22T19:26:38.739Z,0.24
2023-06-22T19:29:38.798Z,0.25
2023-06-22T19:32:39.037Z,0.28
2023-06-22T19:35:38.746Z,0.35
2023-06-22T19:38:38.752Z,0.37
2023-06-22T19:41:38.712Z,0.48
2023-06-22T19:44:38.751Z,0.39
2023-06-22T19:47:38.718Z,0.68
2023-06-22T19:50:38.793Z,1.02
2023-06-22T19:53:38.790Z,0.71
2023-06-22T19:56:38.778Z,0.59
2023-06-22T19:59:38.762Z,0.62
2023-06-22T20:02:38.855Z,0.47
2023-06-22T20:05:38.786Z,0.41
2023-06-22T20:08:38.792Z,0.44
2023-06-22T20:11:38.816Z,0.46
2023-06-22T20:14:38.821Z,0.35
2023-06-22T20:17:38.925Z,0.43
2023-06-22T20:20:38.913Z,0.44
2023-06-22T20:23:38.859Z,0.29
2023-06-22T20:26:38.806Z,0.4
2023-06-22T20:29:39.632Z,0.44
2023-06-22T20:32:38.850Z,0.69
2023-06-22T20:35:38.842Z,0.89
2023-06-22T20:38:38.831Z,0.85
2023-06-22T20:41:38.823Z,0.78
2023-06-22T20:44:38.870Z,0.57
2023-06-22T20:47:38.802Z,0.49
2023-06-22T20:50:38.772Z,0.49
2023-06-22T20:53:38.811Z,0.79
2023-06-22T20:56:38.843Z,0.77
2023-06-22T20:59:38.853Z,0.53
2023-06-22T21:02:38.863Z,0.75
2023-06-22T21:05:38.863Z,0.92
2023-06-22T21:08:38.853Z,0.63
2023-06-22T21:11:38.808Z,0.48
2023-06-22T21:14:38.830Z,0.64
2023-06-22T21:17:38.855Z,0.46
2023-06-22T21:20:38.878Z,0.31
2023-06-22T21:23:38.841Z,0.74
2023-06-22T21:26:38.846Z,0.68
2023-06-22T21:29:38.891Z,1.25
2023-06-22T21:32:38.866Z,1.12
2023-06-22T21:35:38.838Z,0.92
2023-06-22T21:38:38.844Z,0.56
2023-06-22T21:41:38.886Z,0.47
2023-06-22T21:44:38.883Z,1
2023-06-22T21:47:38.914Z,0.95
2023-06-22T21:50:38.861Z,0.98
2023-06-22T21:53:38.905Z,0.98
2023-06-22T21:56:38.828Z,0.82
2023-06-22T21:59:38.931Z,0.62
2023-06-22T22:02:38.911Z,0.73
2023-06-22T22:05:38.904Z,0.9
2023-06-22T22:08:38.852Z,0.98
2023-06-22T22:11:38.922Z,0.56
2023-06-22T22:14:38.910Z,0.48
2023-06-22T22:17:38.958Z,0.86
2023-06-22T22:20:38.958Z,0.83
2023-06-22T22:23:38.877Z,0.8
2023-06-22T22:26:38.931Z,0.63
2023-06-22T22:29:38.934Z,0.47
2023-06-22T22:32:38.918Z,0.75
2023-06-22T22:35:38.886Z,0.62
2023-06-22T22:38:38.887Z,0.5
2023-06-22T22:41:40.606Z,0.69
2023-06-22T22:44:38.892Z,0.74
2023-06-22T22:47:38.961Z,0.87
2023-06-22T22:50:38.875Z,0.68
2023-06-22T22:53:38.923Z,0.61
2023-06-22T22:56:38.904Z,0.96
2023-06-22T22:59:38.955Z,0.86
2023-06-22T23:02:38.993Z,0.84
2023-06-22T23:05:38.921Z,0.64
2023-06-22T23:08:38.939Z,1.11
2023-06-22T23:11:38.981Z,0.88
2023-06-22T23:14:38.935Z,0.99
2023-06-22T23:17:38.955Z,0.97
2023-06-22T23:20:38.940Z,0.84
2023-06-22T23:23:38.932Z,0.92
2023-06-22T23:26:39.010Z,1.04
2023-06-22T23:29:39.006Z,1.26
2023-06-22T23:32:39.000Z,0.89
2023-06-22T23:35:38.922Z,0.96
2023-06-22T23:38:38.999Z,0.92
2023-06-22T23:41:39.000Z,1.04
2023-06-22T23:44:38.980Z,0.89
2023-06-22T23:47:38.968Z,0.77
2023-06-22T23:50:38.947Z,0.81
2023-06-22T23:53:39.027Z,0.68
2023-06-22T23:56:39.012Z,1.08
2023-06-22T23:59:38.990Z,1.05
